sensor_id;sensor_type;location;lat;lon;timestamp;pressure;altitude;pressure_sealevel;temperature;humidity
76321;BME280;65132;52.088;5.402;2023-04-03T00:00:45;103190.97;;;4.19;72.54
76321;BME280;65132;52.088;5.402;2023-04-03T00:03:17;103193.66;;;4.19;72.39
76321;BME280;65132;52.088;5.402;2023-04-03T00:05:45;103193.59;;;4.21;72.01
76321;BME280;65132;52.088;5.402;2023-04-03T00:08:11;103193.09;;;4.08;72.52
76321;BME280;65132;52.088;5.402;2023-04-03T00:10:38;103200.25;;;4.08;72.21
76321;BME280;65132;52.088;5.402;2023-04-03T00:13:12;103195.84;;;4.07;71.99
76321;BME280;65132;52.088;5.402;2023-04-03T00:15:39;103202.25;;;4.01;73.31
76321;BME280;65132;52.088;5.402;2023-04-03T00:18:06;103197.72;;;4.03;72.72
76321;BME280;65132;52.088;5.402;2023-04-03T00:20:35;103194.34;;;3.97;73.00
76321;BME280;65132;52.088;5.402;2023-04-03T00:23:02;103192.69;;;3.93;72.47
76321;BME280;65132;52.088;5.402;2023-04-03T00:25:32;103200.84;;;3.88;72.83
76321;BME280;65132;52.088;5.402;2023-04-03T00:27:58;103208.91;;;3.87;73.35
76321;BME280;65132;52.088;5.402;2023-04-03T00:30:25;103202.66;;;3.88;73.17
76321;BME280;65132;52.088;5.402;2023-04-03T00:32:52;103203.53;;;3.88;73.33
76321;BME280;65132;52.088;5.402;2023-04-03T00:35:20;103205.88;;;3.99;72.72
76321;BME280;65132;52.088;5.402;2023-04-03T00:37:51;103211.44;;;3.93;72.53
76321;BME280;65132;52.088;5.402;2023-04-03T00:40:25;103203.53;;;3.88;73.94
76321;BME280;65132;52.088;5.402;2023-04-03T00:42:56;103201.09;;;3.79;73.53
76321;BME280;65132;52.088;5.402;2023-04-03T00:45:32;103209.13;;;3.79;73.61
76321;BME280;65132;52.088;5.402;2023-04-03T00:48:03;103216.34;;;3.77;73.53
76321;BME280;65132;52.088;5.402;2023-04-03T00:50:36;103217.03;;;3.84;73.30
76321;BME280;65132;52.088;5.402;2023-04-03T00:55:59;103219.91;;;3.78;73.86
76321;BME280;65132;52.088;5.402;2023-04-03T00:58:33;103221.81;;;3.73;74.27
76321;BME280;65132;52.088;5.402;2023-04-03T01:01:06;103232.53;;;3.73;74.75
76321;BME280;65132;52.088;5.402;2023-04-03T01:03:34;103223.84;;;3.63;74.29
76321;BME280;65132;52.088;5.402;2023-04-03T01:06:01;103230.94;;;3.65;75.16
76321;BME280;65132;52.088;5.402;2023-04-03T01:08:27;103226.34;;;3.71;74.85
76321;BME280;65132;52.088;5.402;2023-04-03T01:10:54;103230.06;;;3.65;76.03
76321;BME280;65132;52.088;5.402;2023-04-03T01:13:27;103232.88;;;3.60;75.58
76321;BME280;65132;52.088;5.402;2023-04-03T01:16:01;103225.13;;;3.50;77.14
76321;BME280;65132;52.088;5.402;2023-04-03T01:18:27;103232.34;;;3.46;78.03
76321;BME280;65132;52.088;5.402;2023-04-03T01:24:12;103234.41;;;3.35;77.59
76321;BME280;65132;52.088;5.402;2023-04-03T01:26:41;103230.94;;;3.33;77.68
76321;BME280;65132;52.088;5.402;2023-04-03T01:29:10;103240.94;;;3.25;77.23
76321;BME280;65132;52.088;5.402;2023-04-03T01:34:03;103230.66;;;3.09;78.87
76321;BME280;65132;52.088;5.402;2023-04-03T01:36:31;103234.22;;;3.09;78.78
76321;BME280;65132;52.088;5.402;2023-04-03T01:38:59;103232.63;;;3.02;79.06
76321;BME280;65132;52.088;5.402;2023-04-03T01:41:26;103231.56;;;3.09;78.34
76321;BME280;65132;52.088;5.402;2023-04-03T01:43:55;103222.00;;;2.99;80.25
76321;BME280;65132;52.088;5.402;2023-04-03T01:46:23;103231.97;;;2.91;81.35
76321;BME280;65132;52.088;5.402;2023-04-03T01:48:52;103217.72;;;2.92;81.08
76321;BME280;65132;52.088;5.402;2023-04-03T01:51:18;103228.53;;;2.88;81.00
76321;BME280;65132;52.088;5.402;2023-04-03T01:53:50;103223.19;;;2.86;81.85
76321;BME280;65132;52.088;5.402;2023-04-03T01:56:19;103224.25;;;2.81;81.58
76321;BME280;65132;52.088;5.402;2023-04-03T01:58:48;103235.22;;;2.69;82.20
76321;BME280;65132;52.088;5.402;2023-04-03T02:01:16;103233.75;;;2.54;83.04
76321;BME280;65132;52.088;5.402;2023-04-03T02:03:45;103238.13;;;2.58;82.82
76321;BME280;65132;52.088;5.402;2023-04-03T02:06:11;103244.50;;;2.53;84.37
76321;BME280;65132;52.088;5.402;2023-04-03T02:08:38;103236.66;;;2.43;84.98
76321;BME280;65132;52.088;5.402;2023-04-03T02:11:04;103240.38;;;2.38;84.56
76321;BME280;65132;52.088;5.402;2023-04-03T02:13:31;103246.69;;;2.34;84.88
76321;BME280;65132;52.088;5.402;2023-04-03T02:15:57;103255.66;;;2.31;85.98
76321;BME280;65132;52.088;5.402;2023-04-03T02:18:26;103256.53;;;2.32;85.66
76321;BME280;65132;52.088;5.402;2023-04-03T02:20:55;103254.63;;;2.37;84.95
76321;BME280;65132;52.088;5.402;2023-04-03T02:23:21;103259.50;;;2.18;84.80
76321;BME280;65132;52.088;5.402;2023-04-03T02:25:52;103262.44;;;2.05;86.12
76321;BME280;65132;52.088;5.402;2023-04-03T02:28:18;103258.06;;;2.02;86.53
76321;BME280;65132;52.088;5.402;2023-04-03T02:30:46;103259.81;;;2.03;86.33
76321;BME280;65132;52.088;5.402;2023-04-03T02:33:12;103257.97;;;2.07;86.36
76321;BME280;65132;52.088;5.402;2023-04-03T02:35:38;103256.28;;;2.01;86.17
76321;BME280;65132;52.088;5.402;2023-04-03T02:38:09;103249.28;;;1.97;87.20
76321;BME280;65132;52.088;5.402;2023-04-03T02:40:35;103252.03;;;1.91;86.60
76321;BME280;65132;52.088;5.402;2023-04-03T02:43:05;103260.13;;;1.88;87.12
76321;BME280;65132;52.088;5.402;2023-04-03T02:45:35;103257.59;;;1.81;87.29
76321;BME280;65132;52.088;5.402;2023-04-03T02:48:06;103258.44;;;1.83;88.32
76321;BME280;65132;52.088;5.402;2023-04-03T02:50:33;103265.78;;;1.72;88.73
76321;BME280;65132;52.088;5.402;2023-04-03T02:53:00;103257.00;;;1.67;88.98
76321;BME280;65132;52.088;5.402;2023-04-03T02:55:26;103270.41;;;1.62;88.55
76321;BME280;65132;52.088;5.402;2023-04-03T02:57:52;103275.97;;;1.49;89.21
76321;BME280;65132;52.088;5.402;2023-04-03T03:00:22;103278.59;;;1.53;88.96
76321;BME280;65132;52.088;5.402;2023-04-03T03:02:54;103277.75;;;1.50;89.67
76321;BME280;65132;52.088;5.402;2023-04-03T03:05:23;103275.06;;;1.51;89.23
76321;BME280;65132;52.088;5.402;2023-04-03T03:07:54;103281.31;;;1.49;88.90
76321;BME280;65132;52.088;5.402;2023-04-03T03:10:21;103284.06;;;1.46;88.81
76321;BME280;65132;52.088;5.402;2023-04-03T03:12:50;103286.81;;;1.41;89.15
76321;BME280;65132;52.088;5.402;2023-04-03T03:15:17;103289.50;;;1.38;89.71
76321;BME280;65132;52.088;5.402;2023-04-03T03:17:43;103285.13;;;1.36;89.90
76321;BME280;65132;52.088;5.402;2023-04-03T03:20:10;103293.19;;;1.33;89.87
76321;BME280;65132;52.088;5.402;2023-04-03T03:22:37;103292.31;;;1.31;89.94
76321;BME280;65132;52.088;5.402;2023-04-03T03:25:05;103287.88;;;1.31;90.78
76321;BME280;65132;52.088;5.402;2023-04-03T03:27:36;103288.69;;;1.36;90.82
76321;BME280;65132;52.088;5.402;2023-04-03T03:30:03;103290.53;;;1.30;90.06
76321;BME280;65132;52.088;5.402;2023-04-03T03:32:30;103294.09;;;1.30;90.70
76321;BME280;65132;52.088;5.402;2023-04-03T03:34:59;103291.50;;;1.27;90.99
76321;BME280;65132;52.088;5.402;2023-04-03T03:37:29;103287.94;;;1.27;91.47
76321;BME280;65132;52.088;5.402;2023-04-03T03:39:55;103295.09;;;1.23;91.66
76321;BME280;65132;52.088;5.402;2023-04-03T03:42:21;103296.88;;;1.24;91.25
76321;BME280;65132;52.088;5.402;2023-04-03T03:44:48;103293.25;;;1.27;92.11
76321;BME280;65132;52.088;5.402;2023-04-03T03:47:14;103296.91;;;1.23;91.49
76321;BME280;65132;52.088;5.402;2023-04-03T03:49:43;103297.72;;;1.28;91.98
76321;BME280;65132;52.088;5.402;2023-04-03T03:52:09;103295.06;;;1.24;91.83
76321;BME280;65132;52.088;5.402;2023-04-03T03:54:36;103291.50;;;1.27;91.83
76321;BME280;65132;52.088;5.402;2023-04-03T03:57:03;103295.03;;;1.26;91.46
76321;BME280;65132;52.088;5.402;2023-04-03T03:59:32;103295.03;;;1.28;91.55
76321;BME280;65132;52.088;5.402;2023-04-03T04:01:59;103296.00;;;1.23;91.35
76321;BME280;65132;52.088;5.402;2023-04-03T04:04:25;103309.47;;;1.13;91.63
76321;BME280;65132;52.088;5.402;2023-04-03T04:06:52;103302.44;;;1.10;92.93
76321;BME280;65132;52.088;5.402;2023-04-03T04:09:21;103301.50;;;1.11;92.53
76321;BME280;65132;52.088;5.402;2023-04-03T04:11:50;103302.38;;;1.13;92.59
76321;BME280;65132;52.088;5.402;2023-04-03T04:14:16;103300.72;;;1.06;92.09
76321;BME280;65132;52.088;5.402;2023-04-03T04:16:48;103310.56;;;1.01;91.72
76321;BME280;65132;52.088;5.402;2023-04-03T04:19:15;103312.41;;;0.96;91.95
76321;BME280;65132;52.088;5.402;2023-04-03T04:21:41;103321.41;;;0.89;91.82
76321;BME280;65132;52.088;5.402;2023-04-03T04:24:09;103316.19;;;0.83;91.48
76321;BME280;65132;52.088;5.402;2023-04-03T04:26:40;103318.09;;;0.72;91.62
76321;BME280;65132;52.088;5.402;2023-04-03T04:29:09;103316.25;;;0.77;91.31
76321;BME280;65132;52.088;5.402;2023-04-03T04:31:35;103323.47;;;0.69;91.62
76321;BME280;65132;52.088;5.402;2023-04-03T04:34:03;103314.72;;;0.61;91.05
76321;BME280;65132;52.088;5.402;2023-04-03T04:36:29;103322.78;;;0.55;91.30
76321;BME280;65132;52.088;5.402;2023-04-03T04:38:56;103316.59;;;0.53;91.98
76321;BME280;65132;52.088;5.402;2023-04-03T04:41:22;103326.41;;;0.48;92.87
76321;BME280;65132;52.088;5.402;2023-04-03T04:43:49;103327.41;;;0.40;92.35
76321;BME280;65132;52.088;5.402;2023-04-03T04:46:18;103323.09;;;0.31;92.72
76321;BME280;65132;52.088;5.402;2023-04-03T04:48:47;103324.03;;;0.26;92.93
76321;BME280;65132;52.088;5.402;2023-04-03T04:51:14;103331.97;;;0.30;93.69
76321;BME280;65132;52.088;5.402;2023-04-03T04:53:42;103333.00;;;0.20;92.87
76321;BME280;65132;52.088;5.402;2023-04-03T04:56:12;103333.91;;;0.18;92.41
76321;BME280;65132;52.088;5.402;2023-04-03T04:58:47;103325.06;;;0.14;92.82
76321;BME280;65132;52.088;5.402;2023-04-03T05:01:14;103322.47;;;0.10;92.66
76321;BME280;65132;52.088;5.402;2023-04-03T05:03:41;103325.06;;;0.14;92.89
76321;BME280;65132;52.088;5.402;2023-04-03T05:06:12;103327.69;;;0.16;92.66
76321;BME280;65132;52.088;5.402;2023-04-03T05:08:40;103326.81;;;0.17;92.78
76321;BME280;65132;52.088;5.402;2023-04-03T05:11:07;103325.88;;;0.19;92.63
76321;BME280;65132;52.088;5.402;2023-04-03T05:13:37;103337.41;;;0.21;92.38
76321;BME280;65132;52.088;5.402;2023-04-03T05:16:03;103333.84;;;0.21;92.27
76321;BME280;65132;52.088;5.402;2023-04-03T05:18:33;103340.09;;;0.18;92.70
76321;BME280;65132;52.088;5.402;2023-04-03T05:21:01;103333.97;;;0.09;93.11
76321;BME280;65132;52.088;5.402;2023-04-03T05:23:28;103348.13;;;0.17;93.44
76321;BME280;65132;52.088;5.402;2023-04-03T05:25:55;103341.84;;;0.22;93.30
76321;BME280;65132;52.088;5.402;2023-04-03T05:28:24;103350.66;;;0.27;93.64
76321;BME280;65132;52.088;5.402;2023-04-03T05:30:56;103346.16;;;0.29;93.58
76321;BME280;65132;52.088;5.402;2023-04-03T05:33:23;103354.19;;;0.28;93.88
76321;BME280;65132;52.088;5.402;2023-04-03T05:35:50;103352.34;;;0.36;93.79
76321;BME280;65132;52.088;5.402;2023-04-03T05:38:20;103352.28;;;0.39;93.76
76321;BME280;65132;52.088;5.402;2023-04-03T05:40:48;103352.19;;;0.46;94.14
76321;BME280;65132;52.088;5.402;2023-04-03T05:43:15;103355.69;;;0.53;93.97
76321;BME280;65132;52.088;5.402;2023-04-03T05:45:42;103349.34;;;0.60;94.23
76321;BME280;65132;52.088;5.402;2023-04-03T05:48:12;103352.75;;;0.72;94.10
76321;BME280;65132;52.088;5.402;2023-04-03T05:50:38;103355.25;;;0.84;94.28
76321;BME280;65132;52.088;5.402;2023-04-03T05:53:05;103363.91;;;1.00;94.01
76321;BME280;65132;52.088;5.402;2023-04-03T05:55:32;103365.41;;;1.16;93.59
76321;BME280;65132;52.088;5.402;2023-04-03T05:57:58;103366.19;;;1.26;92.65
76321;BME280;65132;52.088;5.402;2023-04-03T06:00:28;103373.06;;;1.40;92.42
76321;BME280;65132;52.088;5.402;2023-04-03T06:02:57;103366.63;;;1.53;92.42
76321;BME280;65132;52.088;5.402;2023-04-03T06:05:23;103362.06;;;1.60;91.05
76321;BME280;65132;52.088;5.402;2023-04-03T06:08:00;103372.47;;;1.75;90.77
76321;BME280;65132;52.088;5.402;2023-04-03T06:10:27;103379.50;;;1.80;90.40
76321;BME280;65132;52.088;5.402;2023-04-03T06:12:54;103375.78;;;1.90;89.62
76321;BME280;65132;52.088;5.402;2023-04-03T06:15:20;103367.56;;;2.01;89.26
76321;BME280;65132;52.088;5.402;2023-04-03T06:17:47;103368.16;;;2.15;88.54
76321;BME280;65132;52.088;5.402;2023-04-03T06:20:14;103374.47;;;2.12;87.78
76321;BME280;65132;52.088;5.402;2023-04-03T06:22:44;103376.97;;;2.20;87.66
76321;BME280;65132;52.088;5.402;2023-04-03T06:25:12;103380.44;;;2.25;86.71
76321;BME280;65132;52.088;5.402;2023-04-03T06:27:41;103374.06;;;2.32;86.25
76321;BME280;65132;52.088;5.402;2023-04-03T06:30:08;103372.94;;;2.43;85.77
76321;BME280;65132;52.088;5.402;2023-04-03T06:32:34;103381.66;;;2.53;86.06
76321;BME280;65132;52.088;5.402;2023-04-03T06:35:02;103385.13;;;2.58;85.69
76321;BME280;65132;52.088;5.402;2023-04-03T06:37:28;103378.63;;;2.70;84.59
76321;BME280;65132;52.088;5.402;2023-04-03T06:39:55;103386.25;;;2.89;84.90
76321;BME280;65132;52.088;5.402;2023-04-03T06:42:25;103388.22;;;2.80;84.07
76321;BME280;65132;52.088;5.402;2023-04-03T06:44:51;103388.25;;;2.78;83.83
76321;BME280;65132;52.088;5.402;2023-04-03T06:47:22;103397.50;;;3.03;82.81
76321;BME280;65132;52.088;5.402;2023-04-03T06:49:53;103392.13;;;3.06;83.65
76321;BME280;65132;52.088;5.402;2023-04-03T06:52:22;103394.13;;;3.35;82.75
76321;BME280;65132;52.088;5.402;2023-04-03T06:54:49;103399.09;;;3.50;81.38
76321;BME280;65132;52.088;5.402;2023-04-03T06:57:16;103407.09;;;3.51;79.55
76321;BME280;65132;52.088;5.402;2023-04-03T06:59:45;103407.66;;;3.65;80.09
76321;BME280;65132;52.088;5.402;2023-04-03T07:02:11;103406.06;;;3.92;80.37
76321;BME280;65132;52.088;5.402;2023-04-03T07:04:38;103407.53;;;4.04;78.86
76321;BME280;65132;52.088;5.402;2023-04-03T07:07:06;103412.91;;;4.37;77.02
76321;BME280;65132;52.088;5.402;2023-04-03T07:09:35;103410.22;;;4.37;76.75
76321;BME280;65132;52.088;5.402;2023-04-03T07:12:01;103411.91;;;4.40;77.87
76321;BME280;65132;52.088;5.402;2023-04-03T07:14:27;103417.78;;;4.84;74.57
76321;BME280;65132;52.088;5.402;2023-04-03T07:16:54;103412.66;;;5.06;73.57
76321;BME280;65132;52.088;5.402;2023-04-03T07:19:23;103427.19;;;4.99;73.98
76321;BME280;65132;52.088;5.402;2023-04-03T07:21:50;103414.69;;;5.27;73.92
76321;BME280;65132;52.088;5.402;2023-04-03T07:24:17;103417.75;;;5.15;73.19
76321;BME280;65132;52.088;5.402;2023-04-03T07:26:50;103422.09;;;5.47;72.79
76321;BME280;65132;52.088;5.402;2023-04-03T07:29:18;103420.38;;;5.99;71.13
76321;BME280;65132;52.088;5.402;2023-04-03T07:31:48;103427.91;;;6.16;69.67
76321;BME280;65132;52.088;5.402;2023-04-03T07:34:14;103431.06;;;6.02;68.86
76321;BME280;65132;52.088;5.402;2023-04-03T07:36:41;103428.00;;;5.87;68.94
76321;BME280;65132;52.088;5.402;2023-04-03T07:39:07;103422.78;;;6.08;69.80
76321;BME280;65132;52.088;5.402;2023-04-03T07:41:34;103427.88;;;5.90;70.96
76321;BME280;65132;52.088;5.402;2023-04-03T07:44:00;103433.75;;;6.27;69.26
76321;BME280;65132;52.088;5.402;2023-04-03T07:46:27;103432.63;;;6.08;67.68
76321;BME280;65132;52.088;5.402;2023-04-03T07:48:53;103428.81;;;6.64;67.48
76321;BME280;65132;52.088;5.402;2023-04-03T07:51:23;103430.53;;;6.42;68.74
76321;BME280;65132;52.088;5.402;2023-04-03T07:53:52;103422.66;;;7.32;66.28
76321;BME280;65132;52.088;5.402;2023-04-03T07:56:18;103429.63;;;7.37;64.63
76321;BME280;65132;52.088;5.402;2023-04-03T07:58:45;103430.41;;;7.39;63.60
76321;BME280;65132;52.088;5.402;2023-04-03T08:01:11;103437.75;;;7.12;63.26
76321;BME280;65132;52.088;5.402;2023-04-03T08:03:38;103435.59;;;7.67;61.39
76321;BME280;65132;52.088;5.402;2023-04-03T08:06:07;103431.44;;;8.01;59.75
76321;BME280;65132;52.088;5.402;2023-04-03T08:08:41;103432.72;;;7.03;60.73
76321;BME280;65132;52.088;5.402;2023-04-03T08:11:12;103430.56;;;6.90;62.15
76321;BME280;65132;52.088;5.402;2023-04-03T08:13:45;103429.38;;;7.65;61.73
76321;BME280;65132;52.088;5.402;2023-04-03T08:16:18;103425.50;;;7.93;58.10
76321;BME280;65132;52.088;5.402;2023-04-03T08:18:46;103438.03;;;7.73;56.17
76321;BME280;65132;52.088;5.402;2023-04-03T08:21:13;103435.06;;;8.00;54.85
76321;BME280;65132;52.088;5.402;2023-04-03T08:23:42;103440.16;;;8.70;56.00
76321;BME280;65132;52.088;5.402;2023-04-03T08:26:14;103447.47;;;8.04;54.65
76321;BME280;65132;52.088;5.402;2023-04-03T08:28:43;103434.72;;;8.49;55.59
76321;BME280;65132;52.088;5.402;2023-04-03T08:31:14;103452.09;;;9.41;55.43
76321;BME280;65132;52.088;5.402;2023-04-03T08:33:42;103443.44;;;9.52;52.19
76321;BME280;65132;52.088;5.402;2023-04-03T08:36:23;103453.47;;;8.93;51.49
76321;BME280;65132;52.088;5.402;2023-04-03T08:38:50;103444.25;;;9.17;50.55
76321;BME280;65132;52.088;5.402;2023-04-03T08:41:27;103456.75;;;9.38;50.58
76321;BME280;65132;52.088;5.402;2023-04-03T08:52:15;103459.38;;;10.12;44.32
76321;BME280;65132;52.088;5.402;2023-04-03T08:54:55;103455.81;;;10.29;44.31
76321;BME280;65132;52.088;5.402;2023-04-03T08:57:34;103447.94;;;10.24;44.07
76321;BME280;65132;52.088;5.402;2023-04-03T09:02:43;103459.31;;;10.65;44.39
76321;BME280;65132;52.088;5.402;2023-04-03T09:05:19;103450.56;;;10.43;43.11
76321;BME280;65132;52.088;5.402;2023-04-03T09:07:57;103440.63;;;10.60;42.80
76321;BME280;65132;52.088;5.402;2023-04-03T09:10:32;103435.59;;;11.03;39.19
76321;BME280;65132;52.088;5.402;2023-04-03T09:13:01;103433.06;;;11.00;36.64
76321;BME280;65132;52.088;5.402;2023-04-03T09:15:32;103444.03;;;10.97;39.40
76321;BME280;65132;52.088;5.402;2023-04-03T09:18:23;103444.91;;;11.30;39.29
76321;BME280;65132;52.088;5.402;2023-04-03T09:23:28;103457.41;;;11.17;33.07
76321;BME280;65132;52.088;5.402;2023-04-03T09:39:29;103433.44;;;11.73;32.68
76321;BME280;65132;52.088;5.402;2023-04-03T09:42:05;103429.53;;;11.30;32.41
76321;BME280;65132;52.088;5.402;2023-04-03T09:44:38;103426.19;;;11.41;32.77
76321;BME280;65132;52.088;5.402;2023-04-03T09:47:32;103427.38;;;11.04;33.96
76321;BME280;65132;52.088;5.402;2023-04-03T09:50:20;103419.09;;;12.00;31.20
76321;BME280;65132;52.088;5.402;2023-04-03T09:52:50;103421.88;;;12.15;31.42
76321;BME280;65132;52.088;5.402;2023-04-03T09:55:25;103410.34;;;12.55;30.86
76321;BME280;65132;52.088;5.402;2023-04-03T09:57:52;103422.47;;;12.20;30.13
76321;BME280;65132;52.088;5.402;2023-04-03T10:00:38;103415.88;;;12.39;29.73
76321;BME280;65132;52.088;5.402;2023-04-03T10:03:24;103402.44;;;12.22;29.75
76321;BME280;65132;52.088;5.402;2023-04-03T10:05:51;103391.66;;;11.75;29.49
76321;BME280;65132;52.088;5.402;2023-04-03T10:10:46;103383.09;;;12.13;28.88
76321;BME280;65132;52.088;5.402;2023-04-03T10:13:20;103394.47;;;12.63;26.86
76321;BME280;65132;52.088;5.402;2023-04-03T10:15:56;103384.88;;;12.71;26.80
76321;BME280;65132;52.088;5.402;2023-04-03T10:18:45;103381.66;;;12.65;27.40
76321;BME280;65132;52.088;5.402;2023-04-03T10:24:23;103380.09;;;12.61;27.21
76321;BME280;65132;52.088;5.402;2023-04-03T10:30:21;103374.69;;;12.31;29.54
76321;BME280;65132;52.088;5.402;2023-04-03T10:33:11;103359.91;;;10.67;29.09
76321;BME280;65132;52.088;5.402;2023-04-03T10:38:59;103360.41;;;12.14;27.39
76321;BME280;65132;52.088;5.402;2023-04-03T10:47:24;103354.63;;;10.81;26.71
76321;BME280;65132;52.088;5.402;2023-04-03T10:58:24;103349.88;;;10.19;27.56
76321;BME280;65132;52.088;5.402;2023-04-03T11:00:53;103339.16;;;11.61;28.27
76321;BME280;65132;52.088;5.402;2023-04-03T11:03:33;103340.69;;;12.26;27.88
76321;BME280;65132;52.088;5.402;2023-04-03T11:06:03;103342.22;;;11.86;29.32
76321;BME280;65132;52.088;5.402;2023-04-03T11:08:44;103342.75;;;12.64;28.52
76321;BME280;65132;52.088;5.402;2023-04-03T11:11:20;103336.16;;;10.72;28.74
76321;BME280;65132;52.088;5.402;2023-04-03T11:14:01;103335.19;;;11.82;28.41
76321;BME280;65132;52.088;5.402;2023-04-03T11:16:33;103335.28;;;12.82;27.91
76321;BME280;65132;52.088;5.402;2023-04-03T11:22:25;103339.00;;;11.79;30.07
76321;BME280;65132;52.088;5.402;2023-04-03T11:27:43;103329.81;;;12.40;28.94
76321;BME280;65132;52.088;5.402;2023-04-03T11:33:41;103313.22;;;12.30;28.55
76321;BME280;65132;52.088;5.402;2023-04-03T11:36:18;103324.72;;;13.05;28.33
76321;BME280;65132;52.088;5.402;2023-04-03T11:38:58;103319.03;;;12.80;29.81
76321;BME280;65132;52.088;5.402;2023-04-03T11:41:31;103327.91;;;13.39;28.57
76321;BME280;65132;52.088;5.402;2023-04-03T11:47:00;103316.78;;;13.29;28.32
76321;BME280;65132;52.088;5.402;2023-04-03T11:49:59;103311.72;;;12.11;28.32
76321;BME280;65132;52.088;5.402;2023-04-03T11:58:35;103307.06;;;12.56;28.21
76321;BME280;65132;52.088;5.402;2023-04-03T12:01:06;103305.22;;;14.43;28.23
76321;BME280;65132;52.088;5.402;2023-04-03T12:11:22;103290.72;;;14.55;26.28
76321;BME280;65132;52.088;5.402;2023-04-03T12:16:42;103275.38;;;14.90;25.31
76321;BME280;65132;52.088;5.402;2023-04-03T12:19:30;103282.00;;;14.37;27.43
76321;BME280;65132;52.088;5.402;2023-04-03T12:22:10;103279.94;;;14.41;26.02
76321;BME280;65132;52.088;5.402;2023-04-03T12:24:44;103276.03;;;15.42;25.90
76321;BME280;65132;52.088;5.402;2023-04-03T12:27:49;103264.34;;;15.28;29.31
76321;BME280;65132;52.088;5.402;2023-04-03T12:30:43;103251.13;;;16.60;26.08
76321;BME280;65132;52.088;5.402;2023-04-03T12:36:10;103226.84;;;16.12;25.43
76321;BME280;65132;52.088;5.402;2023-04-03T12:44:30;103242.94;;;15.58;24.95
76321;BME280;65132;52.088;5.402;2023-04-03T12:47:13;103242.97;;;13.48;27.08
76321;BME280;65132;52.088;5.402;2023-04-03T12:49:43;103235.69;;;15.46;27.31
76321;BME280;65132;52.088;5.402;2023-04-03T12:54:57;103227.94;;;16.98;24.75
76321;BME280;65132;52.088;5.402;2023-04-03T12:57:26;103229.59;;;16.89;24.11
76321;BME280;65132;52.088;5.402;2023-04-03T12:59:53;103222.59;;;15.97;25.43
76321;BME280;65132;52.088;5.402;2023-04-03T13:02:27;103210.44;;;16.89;25.02
76321;BME280;65132;52.088;5.402;2023-04-03T13:04:57;103215.63;;;17.14;24.74
76321;BME280;65132;52.088;5.402;2023-04-03T13:07:27;103209.00;;;16.52;24.19
76321;BME280;65132;52.088;5.402;2023-04-03T13:10:19;103202.41;;;16.65;24.26
76321;BME280;65132;52.088;5.402;2023-04-03T13:12:51;103208.88;;;16.64;24.90
76321;BME280;65132;52.088;5.402;2023-04-03T13:15:28;103205.34;;;16.85;24.10
76321;BME280;65132;52.088;5.402;2023-04-03T13:17:56;103201.88;;;16.05;25.15
76321;BME280;65132;52.088;5.402;2023-04-03T13:20:24;103206.59;;;17.34;25.14
76321;BME280;65132;52.088;5.402;2023-04-03T13:23:04;103198.16;;;16.84;24.11
76321;BME280;65132;52.088;5.402;2023-04-03T13:25:34;103196.19;;;16.30;24.51
76321;BME280;65132;52.088;5.402;2023-04-03T13:28:05;103191.31;;;16.78;25.05
76321;BME280;65132;52.088;5.402;2023-04-03T13:30:41;103186.06;;;17.29;24.36
76321;BME280;65132;52.088;5.402;2023-04-03T13:33:26;103190.72;;;17.17;24.88
76321;BME280;65132;52.088;5.402;2023-04-03T13:39:06;103188.50;;;17.11;23.98
76321;BME280;65132;52.088;5.402;2023-04-03T13:41:39;103192.22;;;17.73;24.25
76321;BME280;65132;52.088;5.402;2023-04-03T13:49:42;103200.78;;;17.17;24.86
76321;BME280;65132;52.088;5.402;2023-04-03T13:52:24;103198.22;;;17.67;25.91
76321;BME280;65132;52.088;5.402;2023-04-03T13:54:59;103191.06;;;17.76;23.45
76321;BME280;65132;52.088;5.402;2023-04-03T13:57:27;103195.38;;;16.95;24.32
76321;BME280;65132;52.088;5.402;2023-04-03T13:59:57;103189.09;;;16.72;24.05
76321;BME280;65132;52.088;5.402;2023-04-03T14:02:32;103186.22;;;17.16;25.21
76321;BME280;65132;52.088;5.402;2023-04-03T14:05:01;103186.19;;;17.59;25.08
76321;BME280;65132;52.088;5.402;2023-04-03T14:07:29;103187.75;;;17.41;25.30
76321;BME280;65132;52.088;5.402;2023-04-03T14:09:57;103179.19;;;17.66;25.38
76321;BME280;65132;52.088;5.402;2023-04-03T14:12:31;103180.72;;;17.27;24.49
76321;BME280;65132;52.088;5.402;2023-04-03T14:15:01;103179.19;;;17.86;24.19
76321;BME280;65132;52.088;5.402;2023-04-03T14:17:29;103178.44;;;17.43;25.30
76321;BME280;65132;52.088;5.402;2023-04-03T14:19:56;103169.56;;;17.51;24.72
76321;BME280;65132;52.088;5.402;2023-04-03T14:22:26;103173.28;;;16.87;25.25
76321;BME280;65132;52.088;5.402;2023-04-03T14:24:53;103164.63;;;16.59;26.13
76321;BME280;65132;52.088;5.402;2023-04-03T14:27:33;103159.75;;;16.85;25.23
76321;BME280;65132;52.088;5.402;2023-04-03T14:30:00;103157.88;;;17.17;25.02
76321;BME280;65132;52.088;5.402;2023-04-03T14:32:26;103158.44;;;17.00;25.00
76321;BME280;65132;52.088;5.402;2023-04-03T14:34:53;103153.31;;;17.07;24.79
76321;BME280;65132;52.088;5.402;2023-04-03T14:37:25;103154.75;;;16.79;25.25
76321;BME280;65132;52.088;5.402;2023-04-03T14:39:56;103149.91;;;16.83;25.38
76321;BME280;65132;52.088;5.402;2023-04-03T14:42:30;103144.41;;;16.94;24.38
76321;BME280;65132;52.088;5.402;2023-04-03T14:44:59;103138.41;;;16.68;24.75
76321;BME280;65132;52.088;5.402;2023-04-03T14:47:30;103155.69;;;16.46;25.49
76321;BME280;65132;52.088;5.402;2023-04-03T14:50:06;103138.22;;;16.81;25.96
76321;BME280;65132;52.088;5.402;2023-04-03T14:52:35;103156.78;;;17.09;26.42
76321;BME280;65132;52.088;5.402;2023-04-03T14:55:04;103148.53;;;16.88;24.84
76321;BME280;65132;52.088;5.402;2023-04-03T14:57:33;103140.41;;;16.98;24.99
76321;BME280;65132;52.088;5.402;2023-04-03T15:00:04;103143.19;;;14.96;26.52
76321;BME280;65132;52.088;5.402;2023-04-03T15:02:35;103121.06;;;15.11;26.97
76321;BME280;65132;52.088;5.402;2023-04-03T15:05:05;103133.56;;;14.43;28.67